Time;durP1;ratioP1;P1;durP2;ratioP2;P2;SDS_P1;SDS_P2;PMS_P1;PMS_P2;Temp;Humidity;BMP_temperature;BMP_pressure;BME280_temperature;BME280_humidity;BME280_pressure;Samples;Min_cycle;Max_cycle;Signal;HPM_P1;HPM_P2
2023/03/14 00:00:23;;;;;;;25.23;5.10;;;11.50;99.90;;;;;;5050063;28;20076;-64
2023/03/14 00:02:54;;;;;;;23.38;5.50;;;11.40;99.90;;;;;;5039446;28;20522;-65
2023/03/14 00:05:20;;;;;;;24.55;5.35;;;11.30;99.90;;;;;;5045990;28;20550;-64
2023/03/14 00:07:46;;;;;;;24.48;5.72;;;11.00;99.90;;;;;;5051582;28;20179;-65
2023/03/14 00:10:14;;;;;;;21.30;4.63;;;10.20;99.90;;;;;;5046265;28;20396;-65
2023/03/14 00:12:40;;;;;;;23.35;5.60;;;10.60;99.90;;;;;;5046619;28;20047;-65
2023/03/14 00:15:06;;;;;;;25.80;5.07;;;10.80;99.90;;;;;;5049251;28;20110;-65
2023/03/14 00:17:33;;;;;;;26.17;5.93;;;11.00;1.00;;;;;;5044971;28;20056;-65
2023/03/14 00:20:04;;;;;;;24.33;4.63;;;10.40;1.00;;;;;;5045373;28;20398;-65
2023/03/14 00:22:30;;;;;;;22.98;5.07;;;10.20;1.00;;;;;;5050272;28;20061;-65
2023/03/14 00:24:56;;;;;;;25.65;5.53;;;10.40;34.80;;;;;;5049614;28;20097;-65
2023/03/14 00:27:22;;;;;;;26.83;5.75;;;10.40;6.80;;;;;;5043774;28;20037;-65
2023/03/14 00:29:47;;;;;;;22.17;4.70;;;10.90;14.90;;;;;;5041786;28;20024;-65
2023/03/14 00:32:13;;;;;;;25.65;5.60;;;9.80;59.60;;;;;;5047107;28;20099;-65
2023/03/14 00:34:39;;;;;;;22.08;5.57;;;10.10;70.40;;;;;;5037959;28;20041;-65
2023/03/14 00:37:05;;;;;;;21.05;4.78;;;10.90;99.90;;;;;;5049481;28;20044;-65
2023/03/14 00:39:31;;;;;;;23.85;4.40;;;9.80;99.90;;;;;;5046187;28;20514;-65
2023/03/14 00:41:56;;;;;;;18.10;4.63;;;10.10;1.00;;;;;;5042106;28;20047;-65
2023/03/14 00:44:22;;;;;;;17.00;4.10;;;11.30;1.00;;;;;;5038053;28;20522;-65
2023/03/14 00:46:47;;;;;;;37.58;5.65;;;11.10;99.90;;;;;;5045659;28;20037;-65
2023/03/14 00:49:13;;;;;;;21.65;5.03;;;10.40;99.90;;;;;;5050226;28;20029;-65
2023/03/14 00:51:38;;;;;;;22.98;4.53;;;10.20;1.00;;;;;;5050936;28;20040;-65
2023/03/14 00:54:04;;;;;;;17.45;4.03;;;10.50;1.00;;;;;;5045822;28;20033;-65
2023/03/14 00:56:30;;;;;;;19.27;4.75;;;10.90;1.00;;;;;;5050840;28;20793;-65
2023/03/14 00:58:56;;;;;;;29.80;5.63;;;10.90;32.00;;;;;;5050028;28;20037;-65
2023/03/14 01:01:22;;;;;;;29.88;5.53;;;11.30;91.80;;;;;;5035439;28;20403;-65
2023/03/14 01:03:52;;;;;;;26.33;6.03;;;11.00;99.90;;;;;;5039397;28;20042;-65
2023/03/14 01:06:21;;;;;;;26.70;5.93;;;11.20;99.90;;;;;;5044593;28;20038;-65
2023/03/14 01:08:47;;;;;;;23.75;5.13;;;10.40;99.90;;;;;;5034410;28;20045;-65
2023/03/14 01:11:17;;;;;;;26.75;5.90;;;10.30;99.90;;;;;;5031027;28;20426;-65
2023/03/14 01:13:42;;;;;;;30.65;5.93;;;10.90;99.90;;;;;;5031837;28;20129;-65
2023/03/14 01:16:11;;;;;;;23.65;4.50;;;10.20;1.00;;;;;;5042387;28;20499;-65
2023/03/14 01:18:38;;;;;;;26.17;5.35;;;10.60;99.90;;;;;;5043856;28;20504;-65
2023/03/14 01:21:10;;;;;;;36.88;6.47;;;11.00;1.00;;;;;;5043316;28;20490;-64
2023/03/14 01:23:36;;;;;;;30.65;5.93;;;11.10;99.90;;;;;;5047550;28;20045;-65
2023/03/14 01:26:01;;;;;;;30.55;5.68;;;9.70;99.90;;;;;;5030753;28;20134;-65
2023/03/14 01:28:27;;;;;;;33.22;5.60;;;9.20;99.90;;;;;;5032263;28;20042;-65
2023/03/14 01:30:52;;;;;;;33.03;6.15;;;9.40;1.00;;;;;;5050262;28;20433;-65
2023/03/14 01:33:18;;;;;;;28.15;5.50;;;10.60;99.90;;;;;;5059424;28;20062;-65
2023/03/14 01:35:43;;;;;;;27.90;5.80;;;10.40;21.80;;;;;;5031427;28;20084;-65
2023/03/14 01:38:09;;;;;;;35.95;6.82;;;10.00;1.00;;;;;;5049990;28;20048;-65
2023/03/14 01:40:42;;;;;;;26.25;6.10;;;11.00;99.90;;;;;;5049555;28;20124;-65
2023/03/14 01:43:20;;;;;;;30.35;5.65;;;10.40;74.00;;;;;;5050896;28;20491;-65
2023/03/14 01:46:04;;;;;;;30.40;5.90;;;11.00;99.90;;;;;;5049672;28;20076;-65
2023/03/14 01:48:41;;;;;;;31.83;6.40;;;9.60;99.90;;;;;;5053748;28;20040;-65
2023/03/14 01:51:10;;;;;;;34.97;6.75;;;9.30;99.90;;;;;;5053462;28;20037;-65
2023/03/14 01:53:37;;;;;;;31.10;6.28;;;10.30;1.00;;;;;;5053526;28;20037;-65
2023/03/14 01:56:03;;;;;;;35.53;6.38;;;10.60;44.90;;;;;;5052692;28;20045;-65
2023/03/14 01:58:32;;;;;;;28.50;5.05;;;10.90;1.00;;;;;;5039749;28;20406;-65
2023/03/14 02:00:59;;;;;;;20.23;4.60;;;10.10;99.90;;;;;;5050745;28;20024;-65
2023/03/14 02:03:26;;;;;;;29.70;5.32;;;10.50;99.90;;;;;;5051898;28;20084;-65
2023/03/14 02:05:55;;;;;;;30.88;6.30;;;11.30;99.90;;;;;;5047077;28;20041;-65
2023/03/14 02:08:22;;;;;;;33.13;6.35;;;11.00;99.90;;;;;;5033467;28;20108;-65
2023/03/14 02:10:49;;;;;;;30.80;6.07;;;9.80;99.90;;;;;;5051352;28;20029;-65
2023/03/14 02:13:18;;;;;;;33.58;5.82;;;10.80;99.90;;;;;;5053202;28;20068;-65
2023/03/14 02:15:44;;;;;;;29.23;5.88;;;11.00;99.90;;;;;;5052161;28;20037;-65
2023/03/14 02:18:11;;;;;;;26.88;4.95;;;9.30;99.90;;;;;;5052595;28;20044;-65
2023/03/14 02:20:53;;;;;;;27.38;5.85;;;10.90;99.90;;;;;;5052908;28;20130;-65
2023/03/14 02:23:45;;;;;;;29.67;5.78;;;9.50;99.90;;;;;;5052777;28;20067;-65
2023/03/14 02:26:27;;;;;;;29.35;5.85;;;10.90;99.90;;;;;;5032761;28;20037;-65
2023/03/14 02:28:53;;;;;;;24.42;5.38;;;9.50;99.90;;;;;;5038631;28;20040;-65
2023/03/14 02:31:21;;;;;;;27.35;5.80;;;9.00;99.90;;;;;;5052770;28;20037;-65
2023/03/14 02:33:46;;;;;;;32.35;5.90;;;9.90;99.90;;;;;;5051715;28;20054;-65
2023/03/14 02:36:14;;;;;;;34.13;6.35;;;11.10;99.90;;;;;;5036080;28;20033;-65
2023/03/14 02:38:51;;;;;;;34.20;5.93;;;9.20;99.90;;;;;;5050920;28;20122;-65
2023/03/14 02:41:18;;;;;;;27.77;6.15;;;9.40;99.90;;;;;;5052734;28;20423;-65
2023/03/14 02:43:43;;;;;;;33.22;6.68;;;9.30;99.90;;;;;;5052376;28;20041;-65
2023/03/14 02:46:13;;;;;;;33.85;6.45;;;11.30;99.90;;;;;;5049321;28;20391;-65
2023/03/14 02:48:49;;;;;;;39.35;7.25;;;11.30;99.90;;;;;;5052548;28;20518;-65
2023/03/14 02:51:15;;;;;;;40.03;7.25;;;10.10;99.90;;;;;;5052235;28;20094;-65
2023/03/14 02:53:42;;;;;;;40.90;7.03;;;8.80;99.90;;;;;;5052290;28;20040;-65
2023/03/14 02:56:08;;;;;;;25.98;5.15;;;8.90;99.90;;;;;;5049397;28;20431;-65
2023/03/14 02:58:34;;;;;;;34.67;6.63;;;10.70;99.90;;;;;;5035740;28;20085;-65
2023/03/14 03:00:59;;;;;;;43.30;7.00;;;11.60;99.90;;;;;;5050704;28;20037;-65
2023/03/14 03:03:25;;;;;;;33.67;6.50;;;9.40;99.90;;;;;;5051936;28;20045;-65
2023/03/14 03:05:53;;;;;;;38.33;7.60;;;11.40;99.90;;;;;;5049885;28;20037;-66
2023/03/14 03:08:20;;;;;;;31.60;5.85;;;9.20;99.90;;;;;;5033740;28;20048;-65
2023/03/14 03:10:46;;;;;;;35.38;6.57;;;11.20;99.90;;;;;;5052123;28;20398;-65
2023/03/14 03:13:11;;;;;;;42.83;7.65;;;8.90;99.90;;;;;;5052112;28;20041;-65
2023/03/14 03:15:37;;;;;;;49.92;7.45;;;10.60;99.90;;;;;;5049668;28;20049;-65
2023/03/14 03:18:02;;;;;;;42.63;7.85;;;11.40;99.90;;;;;;5034455;28;20052;-65
2023/03/14 03:20:28;;;;;;;44.38;7.35;;;10.80;99.90;;;;;;5051872;28;20044;-65
2023/03/14 03:22:53;;;;;;;38.00;6.35;;;9.60;99.90;;;;;;5051919;28;20481;-65
2023/03/14 03:25:19;;;;;;;44.50;7.43;;;11.10;99.90;;;;;;5051673;28;20137;-65
2023/03/14 03:27:45;;;;;;;39.55;7.20;;;10.50;99.90;;;;;;5038710;28;20077;-65
2023/03/14 03:30:11;;;;;;;34.50;7.03;;;9.10;99.90;;;;;;5039949;28;20183;-65
2023/03/14 03:32:37;;;;;;;39.28;7.88;;;9.50;99.90;;;;;;5050701;28;20033;-65
2023/03/14 03:35:03;;;;;;;43.65;7.63;;;8.90;99.90;;;;;;5036183;28;20493;-65
2023/03/14 03:37:31;;;;;;;39.60;7.57;;;11.30;99.90;;;;;;5041069;28;20502;-65
2023/03/14 03:39:56;;;;;;;37.30;6.38;;;10.10;99.90;;;;;;5045959;28;20092;-65
2023/03/14 03:42:22;;;;;;;35.97;6.43;;;9.70;99.90;;;;;;5051478;28;20095;-65
2023/03/14 03:44:48;;;;;;;49.85;8.93;;;10.00;99.90;;;;;;5050600;28;20036;-66
2023/03/14 03:47:14;;;;;;;42.80;7.53;;;9.50;99.90;;;;;;5040496;28;20044;-65
2023/03/14 03:49:39;;;;;;;51.30;7.30;;;10.90;99.90;;;;;;5043596;28;20037;-65
2023/03/14 03:52:05;;;;;;;37.88;7.78;;;10.80;99.90;;;;;;5051404;28;20112;-65
2023/03/14 03:54:30;;;;;;;44.95;8.13;;;9.10;99.90;;;;;;5050574;28;20041;-65
2023/03/14 03:56:56;;;;;;;47.28;7.45;;;9.30;99.90;;;;;;5044856;28;20438;-65
2023/03/14 03:59:22;;;;;;;51.35;9.02;;;11.10;99.90;;;;;;5031619;28;20452;-65
2023/03/14 04:01:47;;;;;;;50.25;7.63;;;10.20;99.90;;;;;;5046578;28;20403;-65
2023/03/14 04:04:13;;;;;;;42.20;8.40;;;10.40;99.90;;;;;;5051146;28;20108;-65
2023/03/14 04:06:40;;;;;;;46.60;7.50;;;11.30;99.90;;;;;;5041499;28;20072;-66
2023/03/14 04:09:05;;;;;;;44.92;7.82;;;11.00;99.90;;;;;;5050046;28;20112;-65
2023/03/14 04:11:31;;;;;;;40.55;7.20;;;11.20;99.90;;;;;;5049567;28;20123;-65
2023/03/14 04:13:56;;;;;;;39.15;6.72;;;11.00;99.90;;;;;;5049554;28;20069;-65
2023/03/14 04:16:24;;;;;;;45.13;7.05;;;9.70;99.90;;;;;;5046822;28;21577;-65
2023/03/14 04:18:50;;;;;;;40.83;7.28;;;11.50;99.90;;;;;;5042660;28;20066;-65
2023/03/14 04:21:16;;;;;;;29.48;5.05;;;8.70;99.90;;;;;;5050788;28;20037;-66
2023/03/14 04:23:42;;;;;;;28.52;5.63;;;10.60;99.90;;;;;;5050852;28;20113;-65
2023/03/14 04:26:08;;;;;;;26.52;5.47;;;11.50;99.90;;;;;;5038982;28;20045;-66
2023/03/14 04:28:36;;;;;;;26.25;5.57;;;9.50;99.90;;;;;;5048068;28;20049;-65
2023/03/14 04:31:09;;;;;;;38.25;6.65;;;11.30;99.90;;;;;;5050913;28;20025;-65
2023/03/14 04:33:35;;;;;;;35.63;6.07;;;8.30;99.90;;;;;;5048961;28;20044;-66
2023/03/14 04:36:01;;;;;;;40.47;5.88;;;8.70;99.90;;;;;;5040194;28;20052;-66
2023/03/14 04:38:27;;;;;;;37.83;6.45;;;11.70;99.90;;;;;;5042803;28;20048;-66
2023/03/14 04:40:52;;;;;;;29.15;5.03;;;11.80;99.90;;;;;;5049534;28;20040;-66
2023/03/14 04:43:18;;;;;;;32.33;4.90;;;8.50;99.90;;;;;;5050510;28;20045;-66
2023/03/14 04:45:43;;;;;;;26.88;4.50;;;10.90;99.90;;;;;;5047236;28;20040;-65
2023/03/14 04:48:09;;;;;;;21.30;3.53;;;10.00;99.90;;;;;;5049741;28;20040;-65
2023/03/14 04:50:35;;;;;;;28.35;4.72;;;8.50;99.90;;;;;;5045029;28;20037;-65
2023/03/14 04:53:00;;;;;;;25.35;5.35;;;11.00;99.90;;;;;;5050804;28;20490;-66
2023/03/14 04:55:26;;;;;;;29.40;4.18;;;10.10;99.90;;;;;;5050517;28;20510;-66
2023/03/14 04:57:51;;;;;;;21.90;4.60;;;11.60;99.90;;;;;;5050023;28;20386;-65
2023/03/14 05:00:18;;;;;;;24.65;4.32;;;11.60;99.90;;;;;;5047429;28;20110;-66
2023/03/14 05:02:44;;;;;;;23.88;4.78;;;11.40;99.90;;;;;;5050694;28;20041;-66
2023/03/14 05:05:10;;;;;;;27.60;4.38;;;9.00;99.90;;;;;;5050193;28;20048;-66
2023/03/14 05:07:35;;;;;;;26.38;4.60;;;10.70;99.90;;;;;;5039656;28;20073;-66
2023/03/14 05:10:01;;;;;;;35.80;5.50;;;10.80;99.90;;;;;;5047723;28;20034;-66
2023/03/14 05:12:26;;;;;;;34.25;6.03;;;8.50;99.90;;;;;;5050461;28;20044;-66
2023/03/14 05:14:52;;;;;;;42.15;6.25;;;10.90;99.90;;;;;;5050272;28;20037;-66
2023/03/14 05:17:18;;;;;;;58.00;7.70;;;9.00;99.90;;;;;;5047458;28;20037;-66
2023/03/14 05:19:44;;;;;;;38.22;6.13;;;11.00;99.90;;;;;;5045986;28;20049;-66
2023/03/14 05:22:10;;;;;;;27.33;4.28;;;11.30;99.90;;;;;;5049480;28;20697;-65
2023/03/14 05:24:36;;;;;;;39.03;5.00;;;8.80;99.90;;;;;;5053772;28;20053;-66
2023/03/14 05:27:01;;;;;;;28.73;4.25;;;9.60;99.90;;;;;;5044543;28;20044;-66
2023/03/14 05:29:27;;;;;;;21.75;3.83;;;8.50;99.90;;;;;;5044661;28;20040;-66
2023/03/14 05:31:53;;;;;;;22.50;4.05;;;8.50;99.90;;;;;;5053006;28;20411;-67
2023/03/14 05:34:18;;;;;;;25.73;4.28;;;10.50;99.90;;;;;;5053005;28;20043;-67
2023/03/14 05:36:44;;;;;;;18.77;2.67;;;9.00;99.90;;;;;;5043457;28;20091;-66
2023/03/14 05:39:09;;;;;;;18.30;2.90;;;10.40;99.90;;;;;;5048655;28;20037;-67
2023/03/14 05:41:35;;;;;;;16.95;2.35;;;8.80;99.90;;;;;;5038324;28;20050;-66
2023/03/14 05:44:01;;;;;;;12.32;2.67;;;8.10;99.90;;;;;;5034048;28;20123;-67
2023/03/14 05:46:26;;;;;;;14.90;2.90;;;7.90;99.90;;;;;;5033904;28;20044;-67
2023/03/14 05:48:52;;;;;;;13.82;3.08;;;9.70;99.90;;;;;;5046057;28;20140;-67
2023/03/14 05:51:17;;;;;;;20.05;2.95;;;8.70;99.90;;;;;;5032663;28;20029;-67
2023/03/14 05:53:43;;;;;;;9.57;2.17;;;8.20;99.90;;;;;;5038212;28;20040;-67
2023/03/14 05:56:09;;;;;;;25.08;3.75;;;9.00;99.90;;;;;;5050653;28;20060;-67
2023/03/14 05:58:34;;;;;;;18.75;2.45;;;7.70;99.90;;;;;;5039447;28;20037;-67
2023/03/14 06:01:05;;;;;;;13.35;2.53;;;7.80;99.90;;;;;;5053175;28;20036;-67
2023/03/14 06:03:31;;;;;;;14.18;2.15;;;7.10;99.90;;;;;;5052663;28;20040;-66
2023/03/14 06:05:57;;;;;;;19.70;2.33;;;8.80;99.90;;;;;;5041143;28;20041;-66
2023/03/14 06:08:22;;;;;;;7.63;1.80;;;6.60;99.90;;;;;;5037030;28;20132;-66
2023/03/14 06:10:48;;;;;;;15.40;2.53;;;7.70;99.90;;;;;;5046050;28;20040;-67
2023/03/14 06:13:15;;;;;;;7.63;2.05;;;6.50;99.90;;;;;;5046697;28;20556;-67
2023/03/14 06:15:41;;;;;;;10.77;2.10;;;8.50;99.90;;;;;;5047970;28;20091;-66
2023/03/14 06:18:07;;;;;;;6.55;1.60;;;6.90;99.90;;;;;;5045464;28;20485;-67
2023/03/14 06:20:33;;;;;;;7.93;2.05;;;7.10;99.90;;;;;;5035753;28;20090;-66
2023/03/14 06:22:58;;;;;;;8.23;1.83;;;6.30;99.90;;;;;;5048403;28;20526;-67
2023/03/14 06:25:24;;;;;;;8.25;1.30;;;8.10;99.90;;;;;;5045327;28;20038;-67
2023/03/14 06:27:50;;;;;;;7.18;1.98;;;6.40;99.90;;;;;;5036706;28;20037;-67
2023/03/14 06:30:16;;;;;;;8.23;1.48;;;6.80;99.90;;;;;;5049224;28;20083;-66
2023/03/14 06:32:42;;;;;;;12.95;1.85;;;8.30;99.90;;;;;;5051745;28;20123;-66
2023/03/14 06:35:08;;;;;;;6.00;1.45;;;7.70;99.90;;;;;;5047254;28;20124;-67
2023/03/14 06:37:34;;;;;;;14.80;2.00;;;8.30;99.90;;;;;;5041467;28;20481;-67
2023/03/14 06:39:59;;;;;;;9.75;1.70;;;6.40;99.90;;;;;;5045946;28;20120;-66
2023/03/14 06:42:25;;;;;;;9.15;1.58;;;8.20;99.90;;;;;;5048169;28;20051;-66
2023/03/14 06:44:51;;;;;;;5.38;1.85;;;7.60;99.90;;;;;;5051392;28;20040;-66
2023/03/14 06:47:16;;;;;;;5.07;1.58;;;6.20;99.90;;;;;;5038675;28;20041;-66
2023/03/14 06:49:42;;;;;;;12.88;1.75;;;6.90;99.90;;;;;;5043041;28;20033;-66
2023/03/14 06:52:07;;;;;;;9.57;2.08;;;6.40;99.90;;;;;;5056894;28;20037;-67
2023/03/14 06:54:33;;;;;;;12.95;2.78;;;8.40;99.90;;;;;;5037369;28;20064;-66
2023/03/14 06:56:58;;;;;;;11.27;1.67;;;6.70;99.90;;;;;;5033728;28;20049;-66
2023/03/14 06:59:24;;;;;;;7.15;1.70;;;6.40;99.90;;;;;;5035703;28;20033;-66
2023/03/14 07:01:50;;;;;;;9.38;2.00;;;7.70;99.90;;;;;;5033261;28;20041;-66
2023/03/14 07:04:17;;;;;;;3.72;1.38;;;7.60;99.90;;;;;;5052091;28;20037;-66
2023/03/14 07:06:44;;;;;;;10.00;1.77;;;8.10;99.90;;;;;;5032776;28;20499;-66
2023/03/14 07:09:11;;;;;;;12.95;2.60;;;6.40;99.90;;;;;;5037820;28;20052;-66
2023/03/14 07:11:37;;;;;;;11.55;1.85;;;8.00;99.90;;;;;;5040725;28;20053;-73
2023/03/14 07:14:03;;;;;;;11.63;2.20;;;6.20;99.90;;;;;;5034770;28;20652;-67
2023/03/14 07:16:31;;;;;;;11.32;2.45;;;8.30;99.90;;;;;;5035057;28;20496;-67
2023/03/14 07:18:57;;;;;;;20.02;3.30;;;8.40;99.90;;;;;;5040858;28;20163;-66
2023/03/14 07:21:23;;;;;;;19.30;3.35;;;7.00;99.90;;;;;;5045807;28;20045;-66
2023/03/14 07:23:48;;;;;;;17.30;3.28;;;7.60;99.90;;;;;;5031230;28;20033;-66
2023/03/14 07:26:14;;;;;;;24.35;3.20;;;7.40;99.90;;;;;;5035102;28;20783;-67
2023/03/14 07:28:39;;;;;;;25.00;4.18;;;7.20;99.90;;;;;;5040427;28;20075;-66
2023/03/14 07:31:05;;;;;;;22.35;3.85;;;7.70;99.90;;;;;;5040509;28;20037;-66
2023/03/14 07:33:31;;;;;;;21.33;4.40;;;6.80;99.90;;;;;;5041755;28;20384;-66
2023/03/14 07:35:57;;;;;;;17.70;3.63;;;7.60;99.90;;;;;;5034746;28;20040;-66
2023/03/14 07:38:22;;;;;;;23.15;3.75;;;7.30;99.90;;;;;;5032275;28;20057;-66
2023/03/14 07:40:48;;;;;;;24.33;3.78;;;7.30;99.90;;;;;;5044097;28;20043;-66
2023/03/14 07:43:14;;;;;;;23.58;4.30;;;8.40;99.90;;;;;;5042316;28;20064;-66
2023/03/14 07:45:39;;;;;;;23.75;4.47;;;7.20;99.90;;;;;;5037275;28;20037;-66
2023/03/14 07:48:05;;;;;;;34.88;4.45;;;7.00;99.90;;;;;;5040657;28;20052;-66
2023/03/14 07:50:30;;;;;;;25.63;4.82;;;8.40;99.90;;;;;;5045320;28;20048;-66
2023/03/14 07:52:56;;;;;;;30.02;4.72;;;8.50;99.90;;;;;;5039525;28;20410;-66
2023/03/14 07:55:21;;;;;;;23.05;4.13;;;8.50;99.90;;;;;;5039386;28;20128;-66
2023/03/14 07:57:47;;;;;;;27.00;3.90;;;7.80;99.90;;;;;;5033544;28;20045;-66
2023/03/14 08:00:16;;;;;;;24.92;4.50;;;7.00;99.90;;;;;;5042016;28;20049;-66
2023/03/14 08:02:42;;;;;;;29.52;4.57;;;8.50;99.90;;;;;;5045510;28;20037;-66
2023/03/14 08:05:08;;;;;;;35.65;5.22;;;7.10;99.90;;;;;;5035186;28;20084;-66
2023/03/14 08:07:33;;;;;;;31.23;4.70;;;8.70;99.90;;;;;;5032026;28;20049;-66
2023/03/14 08:09:59;;;;;;;57.33;5.45;;;7.30;99.90;;;;;;5033536;28;20045;-66
2023/03/14 08:12:24;;;;;;;30.45;4.65;;;7.60;99.90;;;;;;5041902;28;20033;-66
2023/03/14 08:14:50;;;;;;;28.33;4.95;;;7.40;99.90;;;;;;5031388;28;20038;-66
2023/03/14 08:17:15;;;;;;;33.97;5.97;;;7.80;99.90;;;;;;5032900;28;20111;-66
2023/03/14 08:19:42;;;;;;;41.33;5.45;;;8.20;99.90;;;;;;5037942;28;20052;-66
2023/03/14 08:22:07;;;;;;;36.00;5.88;;;7.50;99.90;;;;;;5040891;28;20057;-66
2023/03/14 08:24:33;;;;;;;33.30;5.25;;;8.30;99.90;;;;;;5037838;28;20079;-66
2023/03/14 08:26:59;;;;;;;24.52;4.72;;;8.10;99.90;;;;;;5040658;28;20029;-66
2023/03/14 08:29:24;;;;;;;34.88;4.85;;;7.60;99.90;;;;;;5033372;28;20498;-66
2023/03/14 08:31:50;;;;;;;29.38;4.78;;;8.70;99.90;;;;;;5034156;28;20044;-66
2023/03/14 08:34:16;;;;;;;30.40;4.88;;;7.70;99.90;;;;;;5037689;28;20037;-66
2023/03/14 08:36:41;;;;;;;34.25;5.68;;;8.30;99.90;;;;;;5041314;28;20043;-66
2023/03/14 08:39:07;;;;;;;35.45;5.35;;;8.70;99.90;;;;;;5046670;28;20064;-66
2023/03/14 08:41:34;;;;;;;36.95;4.88;;;7.30;99.90;;;;;;5039275;28;20057;-66
2023/03/14 08:44:00;;;;;;;20.98;4.32;;;8.40;99.90;;;;;;5037897;28;20048;-66
2023/03/14 08:46:26;;;;;;;32.05;5.38;;;8.50;99.90;;;;;;5037758;28;20042;-66
2023/03/14 08:48:51;;;;;;;21.60;4.35;;;8.50;99.90;;;;;;5047880;28;20072;-66
2023/03/14 08:51:17;;;;;;;28.45;4.38;;;7.30;99.90;;;;;;5043796;28;20051;-66
2023/03/14 08:53:43;;;;;;;23.77;4.10;;;7.30;99.90;;;;;;5038111;28;20045;-66
2023/03/14 08:56:10;;;;;;;34.92;4.95;;;8.20;99.90;;;;;;5049672;28;20059;-66
2023/03/14 08:58:37;;;;;;;33.65;4.93;;;8.40;99.90;;;;;;5034762;28;20056;-66
2023/03/14 09:01:04;;;;;;;21.58;4.13;;;7.30;99.90;;;;;;5037042;28;20084;-66
2023/03/14 09:03:30;;;;;;;29.77;4.57;;;7.80;99.90;;;;;;5038571;28;20123;-66
2023/03/14 09:05:56;;;;;;;38.15;6.10;;;8.50;99.90;;;;;;5037349;28;20140;-66
2023/03/14 09:08:21;;;;;;;32.50;5.82;;;8.30;99.90;;;;;;5039180;28;20094;-66
2023/03/14 09:10:47;;;;;;;30.55;5.13;;;7.90;99.90;;;;;;5046235;28;20065;-66
2023/03/14 09:13:12;;;;;;;24.52;5.78;;;8.00;1.00;;;;;;5034940;28;20418;-66
2023/03/14 09:15:38;;;;;;;34.03;5.70;;;8.00;99.90;;;;;;5042241;28;20039;-66
2023/03/14 09:18:04;;;;;;;29.70;4.38;;;8.10;99.90;;;;;;5035696;28;20034;-66
2023/03/14 09:20:29;;;;;;;34.72;5.57;;;8.00;99.90;;;;;;5033645;28;20449;-66
2023/03/14 09:22:55;;;;;;;23.42;4.22;;;8.00;99.90;;;;;;5043720;28;20041;-66
2023/03/14 09:25:21;;;;;;;21.90;4.03;;;8.40;1.00;;;;;;5040027;28;20045;-66
2023/03/14 09:27:46;;;;;;;27.55;4.25;;;8.10;99.90;;;;;;5040461;28;20464;-66
2023/03/14 09:30:12;;;;;;;24.95;4.63;;;8.20;1.00;;;;;;5041090;28;20045;-66
2023/03/14 09:32:38;;;;;;;18.65;4.28;;;8.40;99.90;;;;;;5040060;28;20091;-68
2023/03/14 09:35:04;;;;;;;28.48;4.43;;;8.40;99.90;;;;;;5039045;28;20037;-64
2023/03/14 09:37:29;;;;;;;20.42;4.75;;;8.20;1.00;;;;;;5036921;28;20048;-64
2023/03/14 09:39:55;;;;;;;24.13;4.80;;;8.10;1.00;;;;;;5037215;28;20080;-64
2023/03/14 09:42:25;;;;;;;28.42;4.53;;;8.40;99.90;;;;;;5041067;28;20041;-64
2023/03/14 09:45:01;;;;;;;25.10;4.60;;;8.10;99.90;;;;;;5043250;28;20417;-66
2023/03/14 09:47:27;;;;;;;16.92;3.60;;;8.40;99.90;;;;;;5043755;28;20053;-66
2023/03/14 09:49:53;;;;;;;19.05;3.95;;;8.30;99.90;;;;;;5034305;28;20048;-66
2023/03/14 09:52:28;;;;;;;19.15;4.55;;;8.60;63.30;;;;;;5042330;28;20077;-66
2023/03/14 09:55:02;;;;;;;24.88;4.22;;;8.50;1.70;;;;;;5048575;28;20042;-66
2023/03/14 09:57:28;;;;;;;25.00;4.38;;;8.70;1.00;;;;;;5044879;28;20033;-66
2023/03/14 10:00:00;;;;;;;19.08;3.92;;;8.60;1.00;;;;;;5038557;28;20029;-66
2023/03/14 10:02:33;;;;;;;18.77;4.35;;;8.60;1.00;;;;;;5031167;28;20037;-66
2023/03/14 10:05:00;;;;;;;19.73;3.78;;;8.60;1.00;;;;;;5032529;28;20086;-66
2023/03/14 10:07:30;;;;;;;12.98;3.55;;;8.50;99.90;;;;;;5040575;28;20123;-66
2023/03/14 10:09:56;;;;;;;16.75;3.50;;;8.50;99.90;;;;;;5042773;28;20072;-66
2023/03/14 10:12:34;;;;;;;12.35;2.60;;;8.40;99.90;;;;;;5037452;28;20065;-66
2023/03/14 10:15:07;;;;;;;19.48;3.72;;;8.40;99.90;;;;;;5035736;28;20151;-66
2023/03/14 10:17:46;;;;;;;19.75;3.70;;;8.40;99.90;;;;;;5039541;28;20037;-66
2023/03/14 10:20:37;;;;;;;16.70;3.50;;;8.60;99.90;;;;;;5041441;28;20037;-66
2023/03/14 10:23:06;;;;;;;16.38;3.42;;;8.70;99.90;;;;;;5046035;28;20053;-66
2023/03/14 10:25:35;;;;;;;19.50;4.07;;;8.70;99.90;;;;;;5032905;28;20918;-66
2023/03/14 10:28:02;;;;;;;15.50;2.97;;;8.70;99.90;;;;;;5043802;28;20060;-66
2023/03/14 10:30:34;;;;;;;23.50;3.28;;;8.50;99.90;;;;;;5047450;28;20033;-66
2023/03/14 10:33:09;;;;;;;19.88;3.25;;;8.20;99.90;;;;;;5043804;28;20040;-66
2023/03/14 10:35:35;;;;;;;17.70;4.20;;;8.10;99.90;;;;;;5035823;28;20179;-66
2023/03/14 10:38:03;;;;;;;14.30;3.28;;;8.30;99.90;;;;;;5040344;28;20566;-66
2023/03/14 10:40:32;;;;;;;13.68;2.33;;;8.10;99.90;;;;;;5031949;28;20486;-66
2023/03/14 10:43:00;;;;;;;10.30;2.50;;;8.10;99.90;;;;;;5034567;28;20501;-66
2023/03/14 10:45:45;;;;;;;12.15;3.92;;;8.00;72.80;;;;;;5042399;28;20041;-66
2023/03/14 10:48:37;;;;;;;12.88;2.58;;;8.10;58.40;;;;;;5032768;28;20041;-66
2023/03/14 10:51:06;;;;;;;11.30;2.38;;;8.20;48.40;;;;;;5049272;28;20103;-66
2023/03/14 10:53:52;;;;;;;8.68;2.63;;;8.20;17.90;;;;;;5047517;28;20103;-66
2023/03/14 10:56:20;;;;;;;12.90;2.75;;;8.20;3.10;;;;;;5047719;28;20413;-66
2023/03/14 10:58:48;;;;;;;14.43;3.05;;;8.20;1.30;;;;;;5036052;28;20557;-70
2023/03/14 11:01:25;;;;;;;10.95;2.80;;;8.30;2.40;;;;;;5035578;28;20116;-74
2023/03/14 11:04:12;;;;;;;9.32;2.15;;;8.30;1.00;;;;;;5037647;28;20396;-74
2023/03/14 11:06:54;;;;;;;13.00;2.35;;;8.30;1.00;;;;;;5022197;28;20159;-74
2023/03/14 11:09:41;;;;;;;8.55;2.78;;;8.30;1.00;;;;;;5037194;28;20120;-74
2023/03/14 11:12:38;;;;;;;15.60;2.70;;;8.20;1.00;;;;;;5033958;28;20037;-66
2023/03/14 11:15:25;;;;;;;6.10;2.33;;;8.30;1.00;;;;;;5032533;28;20033;-66
2023/03/14 11:18:27;;;;;;;20.73;3.75;;;8.50;1.00;;;;;;5044612;28;20045;-66
2023/03/14 11:21:02;;;;;;;12.07;3.00;;;8.70;1.00;;;;;;5031783;28;20057;-66
2023/03/14 11:23:40;;;;;;;13.02;2.88;;;8.50;1.00;;;;;;5036070;28;20535;-66
2023/03/14 11:26:06;;;;;;;12.50;2.50;;;8.20;1.00;;;;;;5043852;28;20085;-66
2023/03/14 11:28:40;;;;;;;13.20;3.10;;;8.00;1.00;;;;;;5036222;28;20076;-66
2023/03/14 11:31:31;;;;;;;9.18;2.00;;;8.10;1.10;;;;;;5037823;28;20032;-66
2023/03/14 11:34:14;;;;;;;8.23;2.30;;;8.20;1.00;;;;;;5034880;28;20044;-66
2023/03/14 11:36:48;;;;;;;11.10;3.03;;;8.30;1.00;;;;;;5036990;28;20045;-66
2023/03/14 11:39:18;;;;;;;13.82;2.95;;;8.40;12.00;;;;;;5044117;28;20038;-66
2023/03/14 11:41:51;;;;;;;9.02;1.95;;;8.30;1.00;;;;;;5038190;28;20446;-66
2023/03/14 11:44:53;;;;;;;10.50;2.63;;;8.30;1.00;;;;;;5041137;28;20048;-66
2023/03/14 11:47:24;;;;;;;14.38;2.92;;;8.40;1.00;;;;;;5028717;28;20053;-66
2023/03/14 11:50:12;;;;;;;9.65;2.13;;;8.40;1.00;;;;;;5032595;28;20041;-66
2023/03/14 11:52:46;;;;;;;7.15;1.98;;;8.20;1.00;;;;;;5040483;28;20052;-66
2023/03/14 11:55:25;;;;;;;6.75;2.00;;;8.00;1.00;;;;;;5036055;28;20090;-66
2023/03/14 11:57:53;;;;;;;10.55;2.03;;;7.90;1.00;;;;;;5052774;28;20075;-66
2023/03/14 12:00:21;;;;;;;13.88;2.90;;;9.70;1.00;;;;;;5041621;28;20384;-66
2023/03/14 12:03:09;;;;;;;11.85;2.97;;;7.80;1.00;;;;;;5035852;28;20120;-66
2023/03/14 12:05:58;;;;;;;4.38;1.90;;;7.80;1.00;;;;;;5034364;28;20042;-66
2023/03/14 12:08:40;;;;;;;7.13;2.20;;;7.80;1.00;;;;;;5048750;28;20064;-66
2023/03/14 12:11:13;;;;;;;11.65;2.22;;;7.70;1.00;;;;;;5042267;28;20043;-66
2023/03/14 12:13:40;;;;;;;9.07;2.10;;;7.90;1.00;;;;;;5039571;28;20049;-66
2023/03/14 12:16:26;;;;;;;10.68;2.63;;;7.90;1.00;;;;;;5034280;28;20120;-66
2023/03/14 12:18:53;;;;;;;14.02;2.53;;;8.00;1.00;;;;;;5036773;28;20068;-66
2023/03/14 12:21:19;;;;;;;12.70;2.80;;;8.10;1.00;;;;;;5034410;28;20522;-66
2023/03/14 12:23:56;;;;;;;11.77;2.83;;;8.10;1.00;;;;;;5033675;28;20040;-66
2023/03/14 12:26:29;;;;;;;9.85;2.55;;;8.10;1.00;;;;;;5042258;28;20041;-66
2023/03/14 12:28:57;;;;;;;9.10;2.08;;;8.20;1.00;;;;;;5055789;28;20041;-66
2023/03/14 12:31:29;;;;;;;11.98;2.45;;;8.00;1.00;;;;;;5037451;28;20060;-66
2023/03/14 12:34:25;;;;;;;10.07;2.38;;;7.90;1.00;;;;;;5038354;28;20040;-66
2023/03/14 12:37:31;;;;;;;8.85;1.67;;;7.80;1.00;;;;;;5040367;28;20032;-66
2023/03/14 12:40:09;;;;;;;12.95;1.88;;;7.70;1.00;;;;;;5048279;28;20123;-66
2023/03/14 12:42:58;;;;;;;15.60;2.95;;;7.80;1.00;;;;;;5035314;28;20077;-66
2023/03/14 12:45:35;;;;;;;6.65;2.00;;;7.80;1.00;;;;;;5038571;28;20051;-66
2023/03/14 12:48:08;;;;;;;11.27;1.98;;;7.90;1.00;;;;;;5040654;28;20612;-66
2023/03/14 12:51:01;;;;;;;7.88;2.50;;;7.90;1.00;;;;;;5038846;28;20127;-66
2023/03/14 12:53:53;;;;;;;8.45;2.05;;;7.90;1.00;;;;;;5034322;28;20439;-66
2023/03/14 12:56:38;;;;;;;9.63;2.42;;;8.10;1.00;;;;;;5040097;28;20052;-66